createdAt,value
2022-09-01T00:02:27.375Z,1.00
2022-09-01T00:04:58.649Z,1.07
2022-09-01T00:07:26.657Z,1.10
2022-09-01T00:09:53.848Z,1.17
2022-09-01T00:12:22.752Z,1.10
2022-09-01T00:14:49.917Z,1.10
2022-09-01T00:17:17.205Z,1.20
2022-09-01T00:19:44.552Z,1.60
2022-09-01T00:22:11.781Z,1.90
2022-09-01T00:24:39.004Z,2.00
2022-09-01T00:27:06.322Z,2.27
2022-09-01T00:29:33.911Z,2.20
2022-09-01T00:32:01.115Z,2.10
2022-09-01T00:34:28.394Z,2.00
2022-09-01T00:36:55.595Z,2.00
2022-09-01T00:39:22.776Z,2.20
2022-09-01T00:41:50.803Z,2.00
2022-09-01T00:44:23.187Z,2.00
2022-09-01T00:46:55.081Z,2.20
2022-09-01T00:49:35.549Z,2.30
2022-09-01T00:52:16.031Z,2.20
2022-09-01T00:54:46.227Z,2.07
2022-09-01T00:57:13.966Z,2.20
2022-09-01T00:59:44.362Z,2.23
2022-09-01T01:02:11.551Z,2.30
2022-09-01T01:04:41.029Z,2.30
2022-09-01T01:07:08.980Z,2.43
2022-09-01T01:09:39.373Z,2.60
2022-09-01T01:12:07.489Z,2.30
2022-09-01T01:14:36.954Z,2.10
2022-09-01T01:17:04.416Z,1.70
2022-09-01T01:20:01.814Z,1.90
2022-09-01T01:23:02.998Z,1.90
2022-09-01T01:25:32.914Z,1.70
2022-09-01T01:28:07.913Z,1.83
2022-09-01T01:30:36.953Z,1.83
2022-09-01T01:33:05.349Z,1.80
2022-09-01T01:35:33.757Z,1.90
2022-09-01T01:38:02.039Z,1.70
2022-09-01T01:40:30.131Z,1.70
2022-09-01T01:42:57.346Z,1.90
2022-09-01T01:45:25.633Z,2.03
2022-09-01T01:47:53.668Z,2.07
2022-09-01T01:50:22.576Z,1.70
2022-09-01T01:52:58.353Z,1.70
2022-09-01T01:55:27.930Z,1.70
2022-09-01T01:57:56.329Z,1.70
2022-09-01T02:00:30.151Z,1.60
2022-09-01T02:02:58.159Z,1.60
2022-09-01T02:05:29.933Z,1.50
2022-09-01T02:08:01.816Z,1.50
2022-09-01T02:10:33.332Z,1.30
2022-09-01T02:13:04.689Z,1.40
2022-09-01T02:15:35.119Z,1.30
2022-09-01T02:18:05.073Z,1.30
2022-09-01T02:20:32.882Z,1.40
2022-09-01T02:23:09.338Z,1.30
2022-09-01T02:25:37.015Z,1.40
2022-09-01T02:28:09.574Z,1.50
2022-09-01T02:30:37.933Z,1.50
2022-09-01T02:33:05.176Z,1.43
2022-09-01T02:35:34.313Z,1.40
2022-09-01T02:38:01.786Z,1.30
2022-09-01T02:40:33.128Z,1.40
2022-09-01T02:43:01.341Z,1.60
2022-09-01T02:45:29.900Z,1.27
2022-09-01T02:47:57.988Z,1.40
2022-09-01T02:50:26.934Z,1.40
2022-09-01T02:52:54.583Z,1.33
2022-09-01T02:55:22.845Z,1.40
2022-09-01T02:57:50.727Z,1.40
2022-09-01T03:00:39.450Z,1.33
2022-09-01T03:03:07.452Z,1.33
2022-09-01T03:05:36.143Z,1.30
2022-09-01T03:08:04.937Z,1.30
2022-09-01T03:10:35.433Z,1.30
2022-09-01T03:13:13.776Z,1.67
2022-09-01T03:15:41.015Z,1.40
2022-09-01T03:18:09.018Z,1.37
2022-09-01T03:20:37.213Z,1.00
2022-09-01T03:23:06.361Z,1.20
2022-09-01T03:25:34.092Z,1.23
2022-09-01T03:28:04.691Z,1.30
2022-09-01T03:30:32.935Z,1.00
2022-09-01T03:33:01.060Z,1.10
2022-09-01T03:35:29.102Z,1.20
2022-09-01T03:37:59.759Z,1.60
2022-09-01T03:40:28.207Z,1.27
2022-09-01T03:42:55.449Z,1.40
2022-09-01T03:45:25.736Z,1.20
2022-09-01T03:47:54.410Z,1.20
2022-09-01T03:50:23.271Z,1.00
2022-09-01T03:52:54.317Z,1.10
2022-09-01T03:55:23.572Z,1.07
2022-09-01T03:57:54.425Z,0.97
2022-09-01T04:00:23.376Z,1.07
2022-09-01T04:02:56.090Z,1.03
2022-09-01T04:05:25.035Z,1.17
2022-09-01T04:07:52.442Z,1.23
2022-09-01T04:10:19.676Z,1.43
2022-09-01T04:12:46.984Z,1.40
2022-09-01T04:15:14.802Z,1.30
2022-09-01T04:18:00.796Z,1.40
2022-09-01T04:20:29.131Z,1.20
2022-09-01T04:22:58.024Z,1.10
2022-09-01T04:25:26.826Z,1.17
2022-09-01T04:27:55.455Z,1.23
2022-09-01T04:30:29.441Z,2.17
2022-09-01T04:32:56.957Z,1.63
2022-09-01T04:35:28.088Z,1.20
2022-09-01T04:37:55.232Z,1.30
2022-09-01T04:40:23.812Z,1.27
2022-09-01T04:42:54.776Z,1.20
2022-09-01T04:45:27.354Z,1.33
2022-09-01T04:47:55.489Z,1.23
2022-09-01T04:50:23.639Z,1.33
2022-09-01T04:52:51.150Z,1.40
2022-09-01T04:55:18.370Z,1.30
2022-09-01T04:57:47.475Z,1.60
2022-09-01T05:00:22.422Z,1.60
2022-09-01T05:02:54.396Z,1.50
2022-09-01T05:05:23.238Z,1.43
2022-09-01T05:07:55.624Z,1.50
2022-09-01T05:10:29.163Z,1.70
2022-09-01T05:12:57.337Z,1.50
2022-09-01T05:15:24.495Z,1.60
2022-09-01T05:17:52.707Z,1.60
2022-09-01T05:20:21.592Z,1.60
2022-09-01T05:22:49.296Z,1.80
2022-09-01T05:25:16.580Z,1.87
2022-09-01T05:27:49.734Z,2.00
2022-09-01T05:30:18.790Z,1.93
2022-09-01T05:32:49.065Z,2.00
2022-09-01T05:35:16.324Z,1.80
2022-09-01T05:37:43.532Z,2.10
2022-09-01T05:40:16.088Z,2.10
2022-09-01T05:42:46.527Z,2.00
2022-09-01T05:45:15.232Z,2.10
2022-09-01T05:47:42.459Z,1.97
2022-09-01T05:50:14.284Z,1.87
2022-09-01T05:52:44.496Z,1.90
2022-09-01T05:55:11.700Z,1.80
2022-09-01T05:57:39.920Z,2.10
2022-09-01T06:00:14.047Z,2.30
2022-09-01T06:02:43.014Z,2.10
2022-09-01T06:05:11.559Z,1.80
2022-09-01T06:07:41.023Z,1.97
2022-09-01T06:10:08.407Z,1.80
2022-09-01T06:12:35.703Z,1.67
2022-09-01T06:15:02.874Z,1.83
2022-09-01T06:17:30.894Z,2.30
2022-09-01T06:20:02.040Z,2.10
2022-09-01T06:22:29.557Z,2.00
2022-09-01T06:25:01.944Z,2.00
2022-09-01T06:27:29.769Z,1.90
2022-09-01T06:29:58.282Z,1.93
2022-09-01T06:32:26.080Z,2.00
2022-09-01T06:34:53.902Z,1.60
2022-09-01T06:37:22.485Z,2.00
2022-09-01T06:39:50.285Z,1.77
2022-09-01T06:42:17.604Z,2.00
2022-09-01T06:44:45.997Z,1.80
2022-09-01T06:47:13.242Z,1.70
2022-09-01T06:49:40.953Z,1.83
2022-09-01T06:52:08.565Z,1.80
2022-09-01T06:54:39.207Z,1.50
2022-09-01T06:59:54.625Z,1.77
2022-09-01T07:02:26.937Z,1.50
2022-09-01T07:04:54.644Z,1.63
2022-09-01T07:10:25.410Z,1.50
2022-09-01T07:13:12.160Z,1.60
2022-09-01T07:18:31.261Z,1.50
2022-09-01T07:21:35.693Z,2.00
2022-09-01T07:24:08.551Z,1.50
2022-09-01T07:26:35.349Z,1.13
2022-09-01T07:29:07.084Z,1.30
2022-09-01T07:34:46.389Z,1.20
2022-09-01T07:38:03.912Z,1.30
2022-09-01T07:45:30.754Z,1.27
2022-09-01T07:48:03.096Z,1.30
2022-09-01T07:50:41.355Z,1.60
2022-09-01T07:53:18.817Z,2.43
2022-09-01T07:55:47.005Z,2.37
2022-09-01T07:58:14.744Z,1.33
2022-09-01T08:00:46.221Z,1.53
2022-09-01T08:03:14.558Z,1.40
2022-09-01T08:05:41.846Z,1.30
2022-09-01T08:08:28.676Z,1.30
2022-09-01T08:11:04.343Z,1.40
2022-09-01T08:13:34.746Z,1.20
2022-09-01T08:16:08.539Z,1.20
2022-09-01T08:18:51.334Z,1.30
2022-09-01T08:21:21.993Z,1.30
2022-09-01T08:23:49.308Z,1.20
2022-09-01T08:26:17.993Z,1.30
2022-09-01T08:28:54.334Z,1.30
2022-09-01T08:31:22.502Z,1.30
2022-09-01T08:33:50.183Z,1.40
2022-09-01T08:36:22.889Z,1.27
2022-09-01T08:38:51.554Z,1.40
2022-09-01T08:41:28.575Z,1.20
2022-09-01T08:43:59.004Z,1.10
2022-09-01T08:46:26.147Z,1.30
2022-09-01T08:51:47.328Z,1.10
2022-09-01T08:54:29.425Z,1.20
2022-09-01T08:56:59.888Z,1.17
2022-09-01T08:59:27.624Z,1.10
2022-09-01T09:02:03.890Z,1.10
2022-09-01T09:04:31.112Z,1.13
2022-09-01T09:07:24.570Z,1.00
2022-09-01T09:09:59.390Z,1.00
2022-09-01T09:12:26.758Z,1.10
2022-09-01T09:15:29.931Z,1.30
2022-09-01T09:18:01.210Z,1.00
2022-09-01T09:20:29.146Z,1.13
2022-09-01T09:22:59.298Z,1.20
2022-09-01T09:25:29.722Z,1.20
2022-09-01T09:28:04.057Z,1.20
2022-09-01T09:30:32.511Z,0.85
2022-09-01T09:35:51.092Z,1.10
2022-09-01T09:38:33.657Z,1.20
2022-09-01T09:41:17.922Z,1.20
2022-09-01T09:43:55.061Z,1.20
2022-09-01T09:46:25.164Z,1.38
2022-09-01T09:49:11.436Z,1.20
2022-09-01T09:51:40.598Z,0.85
2022-09-01T09:54:13.323Z,1.05
2022-09-01T09:56:41.736Z,1.30
2022-09-01T09:59:53.102Z,0.95
2022-09-01T10:02:28.239Z,1.10
2022-09-01T10:04:57.129Z,0.93
2022-09-01T10:07:26.571Z,1.15
2022-09-01T10:09:54.896Z,1.30
2022-09-01T10:12:23.776Z,1.63
2022-09-01T10:14:53.315Z,1.00
2022-09-01T10:17:30.869Z,1.02
2022-09-01T10:20:06.769Z,1.10
2022-09-01T10:22:34.793Z,1.10
2022-09-01T10:25:03.443Z,0.80
2022-09-01T10:27:42.803Z,1.00
2022-09-01T10:30:19.133Z,1.25
2022-09-01T10:32:55.421Z,0.98
2022-09-01T10:35:30.904Z,1.08
2022-09-01T10:37:59.637Z,1.23
2022-09-01T10:40:31.584Z,0.95
2022-09-01T10:43:00.951Z,1.40
2022-09-01T10:45:38.792Z,1.13
2022-09-01T10:48:48.803Z,1.30
2022-09-01T10:51:18.488Z,1.33
2022-09-01T10:53:52.914Z,1.30
2022-09-01T10:56:35.546Z,1.30
2022-09-01T11:01:50.408Z,1.30
2022-09-01T11:04:20.892Z,1.30
2022-09-01T11:07:14.484Z,1.20
2022-09-01T11:09:45.970Z,1.17
2022-09-01T11:12:29.611Z,1.20
2022-09-01T11:15:01.924Z,1.33
2022-09-01T11:17:36.968Z,1.17
2022-09-01T11:20:10.206Z,1.20
2022-09-01T11:22:43.673Z,1.40
2022-09-01T11:25:40.477Z,1.40
2022-09-01T11:28:12.005Z,1.13
2022-09-01T11:30:50.660Z,1.30
2022-09-01T11:33:17.790Z,1.13
2022-09-01T11:35:46.868Z,1.27
2022-09-01T11:38:16.019Z,1.25
2022-09-01T11:40:44.070Z,1.10
2022-09-01T11:43:14.943Z,1.15
2022-09-01T11:46:13.193Z,1.42
2022-09-01T11:48:40.482Z,1.00
2022-09-01T11:51:07.897Z,1.30
2022-09-01T11:53:43.221Z,1.13
2022-09-01T11:56:23.135Z,1.30
2022-09-01T11:58:50.284Z,1.30
2022-09-01T12:01:23.777Z,1.17
2022-09-01T12:03:53.179Z,1.20
2022-09-01T12:06:29.702Z,1.30
2022-09-01T12:09:02.238Z,1.48
2022-09-01T12:11:31.244Z,1.30
2022-09-01T12:14:04.704Z,1.20
2022-09-01T12:16:35.699Z,1.20
2022-09-01T12:19:03.013Z,1.27
2022-09-01T12:21:30.184Z,1.20
2022-09-01T12:24:17.358Z,1.30
2022-09-01T12:26:45.329Z,1.40
2022-09-01T12:29:13.896Z,1.30
2022-09-01T12:31:43.195Z,1.45
2022-09-01T12:34:29.126Z,1.13
2022-09-01T12:37:08.423Z,1.30
2022-09-01T12:39:46.163Z,1.30
2022-09-01T12:42:19.395Z,1.60
2022-09-01T12:44:51.370Z,1.30
2022-09-01T12:47:33.810Z,1.33
2022-09-01T12:50:06.292Z,1.20
2022-09-01T12:52:34.718Z,1.02
2022-09-01T12:55:02.662Z,1.20
2022-09-01T12:57:31.429Z,1.30
2022-09-01T13:00:19.657Z,1.20
2022-09-01T13:02:53.165Z,1.23
2022-09-01T13:05:20.428Z,1.20
2022-09-01T13:07:47.563Z,1.40
2022-09-01T13:10:14.830Z,1.30
2022-09-01T13:12:45.766Z,1.20
2022-09-01T13:17:45.434Z,1.23
2022-09-01T13:20:12.632Z,1.30
2022-09-01T13:22:41.684Z,1.30
2022-09-01T13:25:12.262Z,1.30
2022-09-01T13:27:44.125Z,1.20
2022-09-01T13:30:13.461Z,1.10
2022-09-01T13:33:19.325Z,1.40
2022-09-01T13:35:28.336Z,1.40
2022-09-01T13:37:56.599Z,1.30
2022-09-01T13:40:24.246Z,1.40
2022-09-01T13:42:53.025Z,1.30
2022-09-01T13:45:21.969Z,1.20
2022-09-01T13:53:25.917Z,1.38
2022-09-01T13:55:53.126Z,1.40
2022-09-01T13:58:20.459Z,1.23
2022-09-01T14:00:48.311Z,1.33
2022-09-01T14:03:19.037Z,1.33
2022-09-01T14:05:47.807Z,1.35
2022-09-01T14:08:18.195Z,1.35
2022-09-01T14:10:46.536Z,1.30
2022-09-01T14:13:14.157Z,1.38
2022-09-01T14:15:41.292Z,1.30
2022-09-01T14:18:08.650Z,1.27
2022-09-01T14:20:39.506Z,1.30
2022-09-01T14:23:07.745Z,1.23
2022-09-01T14:25:35.481Z,1.25
2022-09-01T14:28:03.924Z,1.35
2022-09-01T14:30:32.288Z,1.10
2022-09-01T14:33:00.339Z,1.20
2022-09-01T14:35:27.914Z,1.27
2022-09-01T14:37:55.299Z,1.27
2022-09-01T14:40:24.231Z,1.33
2022-09-01T14:42:53.206Z,1.27
2022-09-01T14:45:21.611Z,1.30
2022-09-01T14:47:50.080Z,1.23
2022-09-01T14:50:21.915Z,1.20
2022-09-01T14:52:52.800Z,1.30
2022-09-01T14:55:20.045Z,1.27
2022-09-01T14:57:47.290Z,1.20
2022-09-01T15:00:14.632Z,1.13
2022-09-01T15:02:42.867Z,1.23
2022-09-01T15:05:10.768Z,1.20
2022-09-01T15:07:38.504Z,1.23
2022-09-01T15:10:07.207Z,1.20
2022-09-01T15:12:34.538Z,1.10
2022-09-01T15:15:02.104Z,1.30
2022-09-01T15:17:29.718Z,1.20
2022-09-01T15:20:16.946Z,1.20
2022-09-01T15:22:44.168Z,1.40
2022-09-01T15:25:11.379Z,1.27
2022-09-01T15:27:41.462Z,1.30
2022-09-01T15:30:14.513Z,1.40
2022-09-01T15:32:45.376Z,1.40
2022-09-01T15:35:12.921Z,1.42
2022-09-01T15:37:40.159Z,1.13
2022-09-01T15:40:08.004Z,1.33
2022-09-01T15:42:35.780Z,1.20
2022-09-01T15:45:04.496Z,1.30
2022-09-01T15:47:32.158Z,1.30
2022-09-01T15:50:00.027Z,1.30
2022-09-01T15:52:30.171Z,1.30
2022-09-01T15:54:57.339Z,1.27
2022-09-01T15:57:24.483Z,1.30
2022-09-01T15:59:51.660Z,1.37
2022-09-01T16:02:21.290Z,1.30
2022-09-01T16:04:48.594Z,1.20
2022-09-01T16:07:15.772Z,1.23
2022-09-01T16:09:42.972Z,1.50
2022-09-01T16:12:10.209Z,1.20
2022-09-01T16:14:38.020Z,1.30
2022-09-01T16:17:08.325Z,1.40
2022-09-01T16:19:39.036Z,1.25
2022-09-01T16:22:06.192Z,1.20
2022-09-01T16:24:38.981Z,1.40
2022-09-01T16:27:08.006Z,1.40
2022-09-01T16:29:45.107Z,1.23
2022-09-01T16:32:12.647Z,1.40
2022-09-01T16:34:46.850Z,1.27
2022-09-01T16:37:14.980Z,1.55
2022-09-01T16:39:57.132Z,1.30
2022-09-01T16:42:37.921Z,1.40
2022-09-01T16:45:18.872Z,1.30
2022-09-01T16:47:48.986Z,1.50
2022-09-01T16:50:28.141Z,1.48
2022-09-01T16:53:14.918Z,1.30
2022-09-01T16:55:42.191Z,1.40
2022-09-01T16:58:09.391Z,1.40
2022-09-01T17:00:56.606Z,1.33
2022-09-01T17:03:37.749Z,1.20
2022-09-01T17:06:17.084Z,1.40
2022-09-01T17:08:52.601Z,1.20
2022-09-01T17:11:19.866Z,1.30
2022-09-01T17:13:52.146Z,1.40
2022-09-01T17:16:24.969Z,1.30
2022-09-01T17:18:57.091Z,1.45
2022-09-01T17:21:27.413Z,1.23
2022-09-01T17:23:58.112Z,1.50
2022-09-01T17:26:29.851Z,1.10
2022-09-01T17:29:01.001Z,1.40
2022-09-01T17:31:51.491Z,1.50
2022-09-01T17:34:40.732Z,1.40
2022-09-01T17:37:15.622Z,1.30
2022-09-01T17:39:50.132Z,1.30
2022-09-01T17:42:28.012Z,1.60
2022-09-01T17:44:56.724Z,1.37
2022-09-01T17:47:23.912Z,1.50
2022-09-01T17:50:10.831Z,1.30
2022-09-01T17:52:53.122Z,1.30
2022-09-01T17:55:36.369Z,1.50
2022-09-01T17:58:39.093Z,1.50
2022-09-01T18:01:24.342Z,1.40
2022-09-01T18:04:00.944Z,1.50
2022-09-01T18:06:33.360Z,1.60
2022-09-01T18:09:00.925Z,1.60
2022-09-01T18:11:44.217Z,1.50
2022-09-01T18:14:37.407Z,1.40
2022-09-01T18:17:18.473Z,1.50
2022-09-01T18:19:48.948Z,1.70
2022-09-01T18:22:19.461Z,1.70
2022-09-01T18:24:54.336Z,1.60
2022-09-01T18:27:24.087Z,1.50
2022-09-01T18:29:52.134Z,1.70
2022-09-01T18:32:26.303Z,1.50
2022-09-01T18:34:56.481Z,1.50
2022-09-01T18:37:45.898Z,1.60
2022-09-01T18:40:15.795Z,1.73
2022-09-01T18:43:06.305Z,1.70
2022-09-01T18:45:48.443Z,1.60
2022-09-01T18:48:15.627Z,1.60
2022-09-01T18:50:55.968Z,1.60
2022-09-01T18:53:52.615Z,1.67
2022-09-01T18:56:36.920Z,1.80
2022-09-01T18:59:10.996Z,1.70
2022-09-01T19:01:56.326Z,1.70
2022-09-01T19:04:35.785Z,1.87
2022-09-01T19:07:02.995Z,1.83
2022-09-01T19:09:32.874Z,1.80
2022-09-01T19:12:00.002Z,1.70
2022-09-01T19:14:40.189Z,1.80
2022-09-01T19:17:08.548Z,2.10
2022-09-01T19:19:43.764Z,1.73
2022-09-01T19:22:17.163Z,1.70
2022-09-01T19:24:47.549Z,1.87
2022-09-01T19:27:17.676Z,1.80
2022-09-01T19:29:49.756Z,1.97
2022-09-01T19:32:18.567Z,2.00
2022-09-01T19:34:50.233Z,2.10
2022-09-01T19:37:18.041Z,2.30
2022-09-01T19:39:50.859Z,1.87
2022-09-01T19:42:23.627Z,2.53
2022-09-01T19:44:58.028Z,2.30
2022-09-01T19:47:30.690Z,2.30
2022-09-01T19:50:17.754Z,2.60
2022-09-01T19:52:56.774Z,2.10
2022-09-01T19:55:30.993Z,2.43
2022-09-01T19:58:03.383Z,2.60
2022-09-01T20:00:53.381Z,2.50
2022-09-01T20:03:24.060Z,2.17
2022-09-01T20:06:00.413Z,2.20
2022-09-01T20:08:27.577Z,2.20
2022-09-01T20:10:57.632Z,2.30
2022-09-01T20:13:43.873Z,2.20
2022-09-01T20:16:17.408Z,2.20
2022-09-01T20:18:53.437Z,2.40
2022-09-01T20:21:21.654Z,2.30
2022-09-01T20:23:51.801Z,2.00
2022-09-01T20:26:30.719Z,1.80
2022-09-01T20:29:13.480Z,2.10
2022-09-01T20:31:45.525Z,1.67
2022-09-01T20:34:14.627Z,1.70
2022-09-01T20:36:56.988Z,1.80
2022-09-01T20:39:49.678Z,1.60
2022-09-01T20:42:20.488Z,1.40
2022-09-01T20:44:57.524Z,1.40
2022-09-01T20:47:28.044Z,1.40
2022-09-01T20:49:55.232Z,1.80
2022-09-01T20:52:48.597Z,1.40
2022-09-01T20:55:27.016Z,1.30
2022-09-01T20:58:00.768Z,1.40
2022-09-01T21:00:29.992Z,1.00
2022-09-01T21:03:03.869Z,1.30
2022-09-01T21:05:31.270Z,1.20
2022-09-01T21:08:33.660Z,1.20
2022-09-01T21:11:12.700Z,1.30
2022-09-01T21:13:58.417Z,1.20
2022-09-01T21:16:38.448Z,1.20
2022-09-01T21:19:11.816Z,1.30
2022-09-01T21:21:57.660Z,1.40
2022-09-01T21:24:24.883Z,1.20
2022-09-01T21:26:53.006Z,1.30
2022-09-01T21:29:26.632Z,1.10
2022-09-01T21:31:53.784Z,1.10
2022-09-01T21:34:20.961Z,1.30
2022-09-01T21:36:48.162Z,1.20
2022-09-01T21:39:15.501Z,1.30
2022-09-01T21:41:42.680Z,1.17
2022-09-01T21:44:09.944Z,1.10
2022-09-01T21:46:37.192Z,1.20
2022-09-01T21:49:05.463Z,1.10
2022-09-01T21:51:32.607Z,1.20
2022-09-01T21:53:59.793Z,1.30
2022-09-01T21:56:27.305Z,1.30
2022-09-01T21:58:55.467Z,1.20
2022-09-01T22:01:22.728Z,1.30
2022-09-01T22:03:49.924Z,1.10
2022-09-01T22:06:17.074Z,1.10
2022-09-01T22:08:44.224Z,1.20
2022-09-01T22:11:11.516Z,1.43
2022-09-01T22:13:38.903Z,1.30
2022-09-01T22:16:06.411Z,1.30
2022-09-01T22:18:33.671Z,1.10
2022-09-01T22:21:05.901Z,1.20
2022-09-01T22:23:34.567Z,1.40
2022-09-01T22:26:01.976Z,1.13
2022-09-01T22:28:29.148Z,1.30
2022-09-01T22:30:56.495Z,1.33
2022-09-01T22:33:24.358Z,1.10
2022-09-01T22:35:52.906Z,1.50
2022-09-01T22:38:21.221Z,1.20
2022-09-01T22:40:56.032Z,1.40
2022-09-01T22:43:24.410Z,1.30
2022-09-01T22:45:52.175Z,1.20
2022-09-01T22:48:20.261Z,1.20
2022-09-01T22:50:47.988Z,1.23
2022-09-01T22:53:15.975Z,1.20
2022-09-01T22:55:45.998Z,1.00
2022-09-01T22:58:13.769Z,1.20
2022-09-01T23:00:44.896Z,1.00
2022-09-01T23:03:12.230Z,1.10
2022-09-01T23:05:39.417Z,1.10
2022-09-01T23:08:06.588Z,1.20
2022-09-01T23:10:33.881Z,1.30
2022-09-01T23:13:01.047Z,0.97
2022-09-01T23:15:28.626Z,1.27
2022-09-01T23:17:55.776Z,1.30
2022-09-01T23:20:22.977Z,1.27
2022-09-01T23:22:50.172Z,1.20
2022-09-01T23:25:17.426Z,1.10
2022-09-01T23:27:44.696Z,1.17
2022-09-01T23:30:13.749Z,1.20
2022-09-01T23:32:41.013Z,1.13
2022-09-01T23:35:08.536Z,1.20
2022-09-01T23:37:35.837Z,1.00
2022-09-01T23:40:03.255Z,1.10
2022-09-01T23:42:30.451Z,1.10
2022-09-01T23:44:57.633Z,1.00
2022-09-01T23:47:25.077Z,1.13
2022-09-01T23:49:52.229Z,1.10
2022-09-01T23:52:19.406Z,1.20
2022-09-01T23:54:46.595Z,1.07
2022-09-01T23:57:13.763Z,1.17
2022-09-01T23:59:40.951Z,1.00
